createdAt,value
2022-11-17T00:02:00.264Z,99863.96
2022-11-17T00:04:32.702Z,99856.77
2022-11-17T00:07:05.205Z,99853.12
2022-11-17T00:09:37.780Z,99851.98
2022-11-17T00:12:32.567Z,99849.70
2022-11-17T00:15:05.038Z,99845.63
2022-11-17T00:17:37.186Z,99845.98
2022-11-17T00:20:30.440Z,99841.34
2022-11-17T00:23:02.638Z,99842.80
2022-11-17T00:25:35.793Z,99838.25
2022-11-17T00:28:07.985Z,99843.49
2022-11-17T00:30:57.977Z,99840.00
2022-11-17T00:33:47.968Z,99845.70
2022-11-17T00:36:20.069Z,99849.25
2022-11-17T00:38:52.661Z,99840.09
2022-11-17T00:41:24.844Z,99843.27
2022-11-17T00:43:56.858Z,99841.98
2022-11-17T00:46:29.257Z,99842.11
2022-11-17T00:49:01.745Z,99839.93
2022-11-17T00:51:36.206Z,99837.57
2022-11-17T00:54:09.539Z,99837.49
2022-11-17T00:56:41.881Z,99837.15
2022-11-17T00:59:14.042Z,99828.23
2022-11-17T01:01:47.303Z,99828.91
2022-11-17T01:04:19.645Z,99829.78
2022-11-17T01:06:52.238Z,99832.64
2022-11-17T01:09:25.925Z,99832.38
2022-11-17T01:11:58.243Z,99834.85
2022-11-17T01:14:32.727Z,99834.22
2022-11-17T01:17:04.832Z,99833.60
2022-11-17T01:19:36.959Z,99830.13
2022-11-17T01:22:09.087Z,99829.14
2022-11-17T01:24:41.375Z,99832.80
2022-11-17T01:27:13.541Z,99837.52
2022-11-17T01:29:45.534Z,99838.49
2022-11-17T01:32:17.590Z,99835.17
2022-11-17T01:34:50.246Z,99833.94
2022-11-17T01:37:22.334Z,99835.44
2022-11-17T01:39:54.674Z,99834.71
2022-11-17T01:42:29.684Z,99834.40
2022-11-17T01:45:05.366Z,99832.04
2022-11-17T01:47:43.799Z,99831.16
2022-11-17T01:50:29.498Z,99827.04
2022-11-17T01:53:05.027Z,99827.76
2022-11-17T01:55:39.910Z,99822.25
2022-11-17T01:58:11.798Z,99812.55
2022-11-17T02:00:43.898Z,99812.17
2022-11-17T02:03:16.634Z,99813.30
2022-11-17T02:05:55.276Z,99809.10
2022-11-17T02:08:30.054Z,99811.73
2022-11-17T02:11:04.988Z,99811.83
2022-11-17T02:13:37.114Z,99812.40
2022-11-17T02:16:14.094Z,99810.02
2022-11-17T02:18:47.707Z,99809.06
2022-11-17T02:21:42.846Z,99807.42
2022-11-17T02:24:46.551Z,99810.73
2022-11-17T02:27:51.250Z,99811.41
2022-11-17T02:30:25.535Z,99812.11
2022-11-17T02:33:04.889Z,99804.20
2022-11-17T02:35:48.671Z,99808.40
2022-11-17T02:38:29.588Z,99809.19
2022-11-17T02:41:17.521Z,99807.83
2022-11-17T02:44:06.808Z,99798.96
2022-11-17T02:46:46.320Z,99800.93
2022-11-17T02:49:25.484Z,99802.93
2022-11-17T02:52:00.345Z,99803.27
2022-11-17T02:54:34.459Z,99799.00
2022-11-17T02:57:06.851Z,99791.38
2022-11-17T02:59:44.106Z,99791.13
2022-11-17T03:02:47.036Z,99796.36
2022-11-17T03:05:26.779Z,99801.52
2022-11-17T03:08:19.071Z,99802.15
2022-11-17T03:10:58.367Z,99799.21
2022-11-17T03:13:40.798Z,99800.38
2022-11-17T03:16:26.531Z,99801.12
2022-11-17T03:19:07.504Z,99800.83
2022-11-17T03:21:46.324Z,99801.14
2022-11-17T03:24:22.772Z,99800.34
2022-11-17T03:26:58.132Z,99798.20
2022-11-17T03:29:33.101Z,99796.91
2022-11-17T03:32:08.231Z,99792.77
2022-11-17T03:34:47.073Z,99790.73
2022-11-17T03:37:21.029Z,99789.98
2022-11-17T03:39:56.714Z,99788.81
2022-11-17T03:42:31.988Z,99784.48
2022-11-17T03:45:10.276Z,99781.48
2022-11-17T03:47:43.722Z,99782.45
2022-11-17T03:50:20.032Z,99778.00
2022-11-17T03:52:53.046Z,99780.10
2022-11-17T03:55:34.886Z,99776.94
2022-11-17T03:58:10.803Z,99759.09
2022-11-17T04:00:44.601Z,99774.61
2022-11-17T04:03:17.640Z,99773.95
2022-11-17T04:05:49.820Z,99783.10
2022-11-17T04:08:24.123Z,99779.89
2022-11-17T04:11:13.637Z,99776.20
2022-11-17T04:14:03.539Z,99783.08
2022-11-17T04:16:35.610Z,99787.45
2022-11-17T04:19:08.092Z,99783.63
2022-11-17T04:21:40.339Z,99787.67
2022-11-17T04:24:12.660Z,99786.96
2022-11-17T04:27:02.173Z,99788.61
2022-11-17T04:29:34.991Z,99787.80
2022-11-17T04:32:07.158Z,99786.99
2022-11-17T04:34:41.733Z,99788.62
2022-11-17T04:37:17.466Z,99786.80
2022-11-17T04:39:50.359Z,99792.09
2022-11-17T04:42:22.497Z,99792.41
2022-11-17T04:44:54.637Z,99792.62
2022-11-17T04:47:26.707Z,99796.79
2022-11-17T04:49:59.205Z,99793.98
2022-11-17T04:52:31.196Z,99790.98
2022-11-17T04:55:03.218Z,99784.22
2022-11-17T04:57:35.205Z,99786.00
2022-11-17T05:00:09.854Z,99795.94
2022-11-17T05:02:40.464Z,99792.10
2022-11-17T05:05:12.830Z,99793.90
2022-11-17T05:07:45.176Z,99793.25
2022-11-17T05:10:37.598Z,99793.33
2022-11-17T05:13:26.559Z,99796.98
2022-11-17T05:16:18.140Z,99794.75
2022-11-17T05:18:50.308Z,99796.23
2022-11-17T05:21:22.725Z,99792.05
2022-11-17T05:23:58.366Z,99791.02
2022-11-17T05:26:34.332Z,99791.27
2022-11-17T05:29:07.874Z,99793.70
2022-11-17T05:31:40.772Z,99790.52
2022-11-17T05:34:15.109Z,99786.66
2022-11-17T05:36:47.583Z,99789.45
2022-11-17T05:39:19.605Z,99790.13
2022-11-17T05:41:51.682Z,99792.55
2022-11-17T05:44:23.659Z,99793.92
2022-11-17T05:46:59.675Z,99790.33
2022-11-17T05:49:31.864Z,99795.30
2022-11-17T05:52:04.286Z,99797.03
2022-11-17T05:54:36.413Z,99792.47
2022-11-17T05:57:12.367Z,99796.23
2022-11-17T05:59:48.065Z,99793.98
2022-11-17T06:02:26.929Z,99795.54
2022-11-17T06:04:59.166Z,99793.15
2022-11-17T06:07:31.480Z,99798.95
2022-11-17T06:10:03.780Z,99798.08
2022-11-17T06:12:36.028Z,99802.90
2022-11-17T06:15:09.805Z,99801.52
2022-11-17T06:17:47.383Z,99800.88
2022-11-17T06:20:24.290Z,99805.47
2022-11-17T06:23:06.210Z,99805.80
2022-11-17T06:25:41.812Z,99809.96
2022-11-17T06:28:18.240Z,99804.91
2022-11-17T06:30:51.135Z,99804.48
2022-11-17T06:33:23.517Z,99805.88
2022-11-17T06:35:55.916Z,99804.73
2022-11-17T06:38:29.501Z,99805.41
2022-11-17T06:41:03.547Z,99807.02
2022-11-17T06:43:37.500Z,99808.21
2022-11-17T06:46:09.993Z,99808.25
2022-11-17T06:48:42.154Z,99805.15
2022-11-17T06:51:14.591Z,99809.69
2022-11-17T06:53:47.310Z,99808.62
2022-11-17T06:56:22.181Z,99803.14
2022-11-17T06:58:55.981Z,99805.84
2022-11-17T07:01:28.380Z,99804.35
2022-11-17T07:04:00.492Z,99808.70
2022-11-17T07:06:33.276Z,99808.17
2022-11-17T07:09:05.696Z,99805.53
2022-11-17T07:11:38.151Z,99802.83
2022-11-17T07:14:10.413Z,99806.30
2022-11-17T07:16:44.338Z,99805.66
2022-11-17T07:19:16.454Z,99808.77
2022-11-17T07:21:48.551Z,99808.36
2022-11-17T07:24:21.395Z,99805.15
2022-11-17T07:26:53.835Z,99804.15
2022-11-17T07:29:26.064Z,99801.22
2022-11-17T07:31:58.082Z,99799.05
2022-11-17T07:34:30.254Z,99803.08
2022-11-17T07:37:02.345Z,99808.09
2022-11-17T07:39:34.551Z,99808.17
2022-11-17T07:42:07.238Z,99810.54
2022-11-17T07:44:39.819Z,99813.25
2022-11-17T07:47:11.826Z,99809.66
2022-11-17T07:49:43.889Z,99808.45
2022-11-17T07:52:16.097Z,99812.21
2022-11-17T07:54:48.615Z,99812.03
2022-11-17T07:57:21.631Z,99810.73
2022-11-17T07:59:53.688Z,99814.73
2022-11-17T08:02:25.846Z,99817.17
2022-11-17T08:04:58.055Z,99817.06
2022-11-17T08:07:30.171Z,99809.90
2022-11-17T08:10:02.371Z,99810.50
2022-11-17T08:12:34.543Z,99809.11
2022-11-17T08:15:08.017Z,99810.92
2022-11-17T08:17:40.073Z,99804.97
2022-11-17T08:20:13.799Z,99808.37
2022-11-17T08:22:46.727Z,99805.14
2022-11-17T08:25:19.761Z,99802.86
2022-11-17T08:27:55.066Z,99801.27
2022-11-17T08:30:28.755Z,99801.33
2022-11-17T08:33:00.878Z,99805.03
2022-11-17T08:35:37.340Z,99804.15
2022-11-17T08:38:11.761Z,99801.86
2022-11-17T08:40:43.949Z,99808.35
2022-11-17T08:43:15.969Z,99804.02
2022-11-17T08:45:48.112Z,99803.64
2022-11-17T08:48:20.211Z,99804.59
2022-11-17T08:50:52.946Z,99811.60
2022-11-17T08:53:25.469Z,99810.39
2022-11-17T08:55:58.034Z,99812.24
2022-11-17T08:58:30.126Z,99811.05
2022-11-17T09:01:05.360Z,99812.64
2022-11-17T09:03:37.738Z,99813.79
2022-11-17T09:06:10.110Z,99814.89
2022-11-17T09:08:46.221Z,99813.33
2022-11-17T09:11:28.166Z,99808.85
2022-11-17T09:14:00.285Z,99809.74
2022-11-17T09:16:32.485Z,99813.90
2022-11-17T09:19:04.667Z,99816.71
2022-11-17T09:21:36.743Z,99817.42
2022-11-17T09:24:10.056Z,99822.84
2022-11-17T09:26:43.393Z,99826.95
2022-11-17T09:29:15.497Z,99824.77
2022-11-17T09:31:47.758Z,99829.23
2022-11-17T09:34:19.961Z,99826.93
2022-11-17T09:36:52.113Z,99829.94
2022-11-17T09:39:24.109Z,99827.84
2022-11-17T09:41:58.225Z,99827.38
2022-11-17T09:44:39.915Z,99820.40
2022-11-17T09:47:20.445Z,99824.91
2022-11-17T09:49:59.607Z,99826.01
2022-11-17T09:52:36.689Z,99827.16
2022-11-17T09:55:31.138Z,99824.32
2022-11-17T09:58:19.636Z,99823.54
2022-11-17T10:00:52.949Z,99816.69
2022-11-17T10:03:29.551Z,99814.45
2022-11-17T10:06:05.534Z,99806.88
2022-11-17T10:08:41.917Z,99799.20
2022-11-17T10:11:35.162Z,99806.39
2022-11-17T10:14:17.614Z,99805.25
2022-11-17T10:16:55.400Z,99805.14
2022-11-17T10:19:29.707Z,99804.37
2022-11-17T10:22:21.106Z,99805.91
2022-11-17T10:24:58.001Z,99803.42
2022-11-17T10:27:31.954Z,99808.40
2022-11-17T10:30:07.214Z,99810.15
2022-11-17T10:32:49.478Z,99813.35
2022-11-17T10:35:24.119Z,99806.08
2022-11-17T10:37:58.866Z,99799.39
2022-11-17T10:40:31.331Z,99801.61
2022-11-17T10:43:22.087Z,99797.79
2022-11-17T10:45:57.251Z,99801.05
2022-11-17T10:48:32.083Z,99800.73
2022-11-17T10:51:03.706Z,99802.94
2022-11-17T10:53:44.906Z,99798.83
2022-11-17T10:56:21.845Z,99802.27
2022-11-17T10:59:05.413Z,99798.90
2022-11-17T11:01:40.132Z,99799.45
2022-11-17T11:04:34.716Z,99799.41
2022-11-17T11:07:12.768Z,99798.96
2022-11-17T11:09:50.996Z,99804.88
2022-11-17T11:12:32.535Z,99808.46
2022-11-17T11:15:26.321Z,99806.83
2022-11-17T11:17:59.704Z,99803.52
2022-11-17T11:20:43.651Z,99802.06
2022-11-17T11:23:23.914Z,99794.50
2022-11-17T11:26:09.194Z,99791.06
2022-11-17T11:28:52.793Z,99786.02
2022-11-17T11:31:34.567Z,99789.95
2022-11-17T11:34:24.854Z,99787.63
2022-11-17T11:37:02.690Z,99786.14
2022-11-17T11:39:47.980Z,99786.03
2022-11-17T11:42:35.014Z,99787.31
2022-11-17T11:45:18.690Z,99787.11
2022-11-17T11:48:08.262Z,99792.86
2022-11-17T11:50:50.050Z,99788.39
2022-11-17T11:53:29.143Z,99789.84
2022-11-17T11:56:13.717Z,99790.25
2022-11-17T11:58:52.367Z,99790.05
2022-11-17T12:01:25.673Z,99788.25
2022-11-17T12:04:14.552Z,99790.38
2022-11-17T12:06:54.156Z,99793.46
2022-11-17T12:09:57.336Z,99789.94
2022-11-17T12:12:33.810Z,99789.86
2022-11-17T12:15:35.102Z,99788.25
2022-11-17T12:18:14.676Z,99783.66
2022-11-17T12:20:55.264Z,99782.42
2022-11-17T12:23:50.834Z,99784.67
2022-11-17T12:26:29.292Z,99781.49
2022-11-17T12:29:34.031Z,99783.02
2022-11-17T12:32:06.064Z,99783.77
2022-11-17T12:34:38.703Z,99785.27
2022-11-17T12:37:30.182Z,99783.23
2022-11-17T12:40:04.931Z,99786.38
2022-11-17T12:42:37.827Z,99783.09
2022-11-17T12:45:11.478Z,99782.90
2022-11-17T12:47:54.805Z,99783.49
2022-11-17T12:51:04.443Z,99784.88
2022-11-17T12:53:54.728Z,99783.77
2022-11-17T12:56:53.127Z,99784.39
2022-11-17T12:59:52.148Z,99784.30
2022-11-17T13:02:38.646Z,99783.27
2022-11-17T13:05:17.629Z,99780.52
2022-11-17T13:07:50.239Z,99777.69
2022-11-17T13:10:30.832Z,99777.00
2022-11-17T13:13:18.938Z,99777.35
2022-11-17T13:15:54.265Z,99778.14
2022-11-17T13:18:32.965Z,99771.86
2022-11-17T13:21:05.904Z,99765.55
2022-11-17T13:23:44.004Z,99763.09
2022-11-17T13:26:23.944Z,99760.70
2022-11-17T13:29:07.699Z,99760.75
2022-11-17T13:31:39.821Z,99761.05
2022-11-17T13:34:18.980Z,99759.00
2022-11-17T13:36:58.186Z,99764.89
2022-11-17T13:39:31.189Z,99764.20
2022-11-17T13:42:04.250Z,99765.18
2022-11-17T13:44:36.627Z,99756.62
2022-11-17T13:47:23.095Z,99759.66
2022-11-17T13:49:54.947Z,99760.79
2022-11-17T13:52:41.994Z,99757.64
2022-11-17T13:55:21.606Z,99756.55
2022-11-17T13:58:01.866Z,99754.91
2022-11-17T14:00:34.655Z,99751.95
2022-11-17T14:03:29.447Z,99752.13
2022-11-17T14:06:01.240Z,99752.83
2022-11-17T14:08:34.591Z,99759.60
2022-11-17T14:11:23.939Z,99754.38
2022-11-17T14:13:58.900Z,99756.92
2022-11-17T14:16:34.704Z,99750.50
2022-11-17T14:19:26.441Z,99747.50
2022-11-17T14:22:04.837Z,99744.42
2022-11-17T14:24:37.607Z,99736.51
2022-11-17T14:27:15.727Z,99735.45
2022-11-17T14:29:47.441Z,99732.96
2022-11-17T14:32:19.200Z,99731.36
2022-11-17T14:34:51.296Z,99726.24
2022-11-17T14:37:23.017Z,99715.44
2022-11-17T14:39:54.755Z,99712.70
2022-11-17T14:42:28.343Z,99711.73
2022-11-17T14:45:02.012Z,99695.34
2022-11-17T14:47:33.818Z,99714.27
2022-11-17T14:50:06.458Z,99719.19
2022-11-17T14:52:39.667Z,99713.52
2022-11-17T14:55:12.354Z,99708.66
2022-11-17T14:57:44.109Z,99708.55
2022-11-17T15:00:20.551Z,99702.45
2022-11-17T15:02:52.982Z,99700.56
2022-11-17T15:05:24.681Z,99702.25
2022-11-17T15:07:57.965Z,99699.27
2022-11-17T15:10:29.739Z,99696.02
2022-11-17T15:13:02.003Z,99680.52
2022-11-17T15:15:33.694Z,99692.20
2022-11-17T15:18:05.677Z,99689.60
2022-11-17T15:20:37.445Z,99687.81
2022-11-17T15:23:09.269Z,99682.81
2022-11-17T15:25:41.269Z,99678.55
2022-11-17T15:28:18.907Z,99677.73
2022-11-17T15:30:53.483Z,99677.04
2022-11-17T15:33:25.474Z,99684.94
2022-11-17T15:36:05.262Z,99691.88
2022-11-17T15:38:37.442Z,99701.70
2022-11-17T15:41:11.304Z,99709.66
2022-11-17T15:43:45.051Z,99716.61
2022-11-17T15:46:18.750Z,99719.17
2022-11-17T15:48:53.949Z,99716.73
2022-11-17T15:51:28.127Z,99720.20
2022-11-17T15:54:01.394Z,99719.06
2022-11-17T15:56:36.903Z,99714.31
2022-11-17T15:59:11.826Z,99726.14
2022-11-17T16:01:43.965Z,99730.48
2022-11-17T16:04:16.859Z,99728.76
2022-11-17T16:06:48.962Z,99735.38
2022-11-17T16:09:23.389Z,99735.54
2022-11-17T16:13:09.248Z,99735.95
2022-11-17T16:16:27.529Z,99739.17
2022-11-17T16:19:58.635Z,99736.56
2022-11-17T16:23:46.585Z,99728.73
2022-11-17T16:29:44.204Z,99732.70
2022-11-17T16:32:16.101Z,99734.03
2022-11-17T16:34:49.832Z,99736.48
2022-11-17T16:37:21.599Z,99734.34
2022-11-17T16:39:53.691Z,99737.69
2022-11-17T16:42:26.154Z,99737.08
2022-11-17T16:44:57.930Z,99746.14
2022-11-17T16:47:30.139Z,99748.79
2022-11-17T16:50:03.622Z,99749.02
2022-11-17T16:52:36.340Z,99743.70
2022-11-17T16:55:09.547Z,99746.90
2022-11-17T16:57:41.576Z,99744.98
2022-11-17T17:00:18.460Z,99750.88
2022-11-17T17:02:52.447Z,99747.27
2022-11-17T17:05:24.460Z,99745.90
2022-11-17T17:07:56.661Z,99740.55
2022-11-17T17:10:28.575Z,99740.09
2022-11-17T17:13:00.674Z,99739.79
2022-11-17T17:15:33.741Z,99738.98
2022-11-17T17:18:06.224Z,99741.83
2022-11-17T17:20:38.324Z,99740.27
2022-11-17T17:23:10.107Z,99739.75
2022-11-17T17:25:41.834Z,99746.66
2022-11-17T17:28:13.907Z,99746.21
2022-11-17T17:30:53.814Z,99749.55
2022-11-17T17:33:25.648Z,99742.86
2022-11-17T17:36:01.883Z,99749.07
2022-11-17T17:38:34.142Z,99749.05
2022-11-17T17:41:10.748Z,99749.10
2022-11-17T17:43:43.905Z,99750.52
2022-11-17T17:46:17.458Z,99740.98
2022-11-17T17:48:49.578Z,99742.63
2022-11-17T17:51:24.048Z,99746.44
2022-11-17T17:53:58.337Z,99742.95
2022-11-17T17:56:31.452Z,99737.45
2022-11-17T17:59:03.340Z,99736.88
2022-11-17T18:01:37.406Z,99736.23
2022-11-17T18:04:15.278Z,99737.38
2022-11-17T18:06:48.911Z,99742.37
2022-11-17T18:09:21.137Z,99742.64
2022-11-17T18:11:53.056Z,99745.32
2022-11-17T18:14:25.161Z,99747.36
2022-11-17T18:16:57.117Z,99753.67
2022-11-17T18:19:33.220Z,99752.96
2022-11-17T18:22:05.252Z,99753.73
2022-11-17T18:24:36.951Z,99756.32
2022-11-17T18:27:09.039Z,99752.61
2022-11-17T18:29:40.800Z,99754.38
2022-11-17T18:32:12.551Z,99752.99
2022-11-17T18:34:44.519Z,99747.47
2022-11-17T18:37:16.682Z,99747.39
2022-11-17T18:39:48.824Z,99745.71
2022-11-17T18:42:20.553Z,99744.41
2022-11-17T18:44:52.455Z,99743.54
2022-11-17T18:47:24.201Z,99742.47
2022-11-17T18:49:56.495Z,99742.02
2022-11-17T18:52:31.391Z,99740.43
2022-11-17T18:55:03.806Z,99739.44
2022-11-17T18:57:35.585Z,99737.11
2022-11-17T19:00:09.696Z,99736.23
2022-11-17T19:02:41.592Z,99730.10
2022-11-17T19:05:13.490Z,99727.45
2022-11-17T19:07:45.229Z,99729.71
2022-11-17T19:10:17.780Z,99729.59
2022-11-17T19:12:49.466Z,99729.23
2022-11-17T19:15:21.466Z,99730.61
2022-11-17T19:17:53.339Z,99731.23
2022-11-17T19:20:27.381Z,99728.18
2022-11-17T19:22:59.194Z,99723.72
2022-11-17T19:25:41.038Z,99717.58
2022-11-17T19:28:15.643Z,99719.52
2022-11-17T19:30:47.453Z,99717.98
2022-11-17T19:33:19.186Z,99720.70
2022-11-17T19:35:51.508Z,99718.39
2022-11-17T19:38:23.229Z,99716.35
2022-11-17T19:40:55.124Z,99718.72
2022-11-17T19:43:26.931Z,99710.80
2022-11-17T19:46:01.677Z,99714.88
2022-11-17T19:48:33.947Z,99714.93
2022-11-17T19:51:15.763Z,99721.52
2022-11-17T19:53:47.989Z,99728.56
2022-11-17T19:56:21.143Z,99736.79
2022-11-17T19:58:53.844Z,99736.59
2022-11-17T20:01:27.984Z,99731.34
2022-11-17T20:04:01.475Z,99727.86
2022-11-17T20:06:37.765Z,99724.90
2022-11-17T20:09:11.169Z,99732.49
2022-11-17T20:11:43.554Z,99725.02
2022-11-17T20:14:15.463Z,99723.08
2022-11-17T20:16:47.348Z,99726.77
2022-11-17T20:19:19.253Z,99723.40
2022-11-17T20:21:51.581Z,99719.73
2022-11-17T20:24:23.441Z,99714.58
2022-11-17T20:26:55.285Z,99706.71
2022-11-17T20:29:27.133Z,99711.05
2022-11-17T20:31:58.926Z,99707.27
2022-11-17T20:34:31.601Z,99708.81
2022-11-17T20:37:03.961Z,99705.60
2022-11-17T20:39:35.801Z,99703.93
2022-11-17T20:42:08.125Z,99698.44
2022-11-17T20:44:39.920Z,99701.70
2022-11-17T20:47:12.286Z,99697.34
2022-11-17T20:49:44.854Z,99698.84
2022-11-17T20:52:17.657Z,99688.96
2022-11-17T20:54:49.639Z,99685.09
2022-11-17T20:57:22.089Z,99687.14
2022-11-17T20:59:54.309Z,99686.06
2022-11-17T21:02:26.654Z,99680.48
2022-11-17T21:04:58.758Z,99674.71
2022-11-17T21:07:30.876Z,99676.55
2022-11-17T21:10:02.923Z,99675.26
2022-11-17T21:12:34.825Z,99671.56
2022-11-17T21:15:08.199Z,99667.67
2022-11-17T21:17:58.036Z,99671.70
2022-11-17T21:20:30.036Z,99671.98
2022-11-17T21:23:02.301Z,99673.46
2022-11-17T21:25:36.122Z,99674.09
2022-11-17T21:28:08.354Z,99677.75
2022-11-17T21:30:40.228Z,99671.54
2022-11-17T21:33:12.164Z,99673.36
2022-11-17T21:35:43.904Z,99671.60
2022-11-17T21:38:15.829Z,99669.55
2022-11-17T21:40:47.697Z,99668.72
2022-11-17T21:43:19.583Z,99668.28
2022-11-17T21:45:51.348Z,99668.09
2022-11-17T21:48:23.231Z,99663.86
2022-11-17T21:50:55.768Z,99665.94
2022-11-17T21:53:28.498Z,99662.23
2022-11-17T21:56:04.067Z,99663.93
2022-11-17T21:58:36.191Z,99663.40
2022-11-17T22:01:12.879Z,99659.52
2022-11-17T22:03:45.377Z,99658.19
2022-11-17T22:06:19.026Z,99660.46
2022-11-17T22:08:51.655Z,99656.58
2022-11-17T22:11:36.493Z,99656.09
2022-11-17T22:14:11.246Z,99661.04
2022-11-17T22:16:44.483Z,99660.90
2022-11-17T22:19:18.188Z,99652.02
2022-11-17T22:21:52.633Z,99649.70
2022-11-17T22:24:24.833Z,99651.47
2022-11-17T22:26:56.788Z,99651.18
2022-11-17T22:29:28.668Z,99647.92
2022-11-17T22:32:00.466Z,99648.75
2022-11-17T22:34:32.402Z,99646.88
2022-11-17T22:37:04.435Z,99651.40
2022-11-17T22:39:36.311Z,99655.64
2022-11-17T22:42:08.580Z,99654.35
2022-11-17T22:44:40.442Z,99660.62
2022-11-17T22:47:12.211Z,99662.93
2022-11-17T22:49:44.143Z,99668.26
2022-11-17T22:52:15.858Z,99657.36
2022-11-17T22:54:47.986Z,99652.02
2022-11-17T22:57:19.794Z,99650.76
2022-11-17T23:10:41.215Z,99631.93
2022-11-17T23:13:44.659Z,99618.79
2022-11-17T23:16:25.298Z,99639.18
2022-11-17T23:19:37.418Z,99637.77
2022-11-17T23:22:11.849Z,99633.44
2022-11-17T23:24:43.739Z,99645.13
2022-11-17T23:27:15.840Z,99647.33
2022-11-17T23:29:47.875Z,99648.21
2022-11-17T23:32:19.790Z,99642.30
2022-11-17T23:34:51.716Z,99647.34
2022-11-17T23:37:23.615Z,99654.89
2022-11-17T23:39:55.511Z,99653.71
2022-11-17T23:42:31.497Z,99656.00
2022-11-17T23:45:04.890Z,99663.25
2022-11-17T23:47:36.586Z,99665.81
2022-11-17T23:50:09.901Z,99667.85
2022-11-17T23:52:41.791Z,99675.05
2022-11-17T23:55:14.292Z,99675.30
2022-11-17T23:57:46.465Z,99676.46
